createdAt,value
2023-05-10T00:00:47.387Z,13.20
2023-05-10T00:03:14.408Z,14.00
2023-05-10T00:05:41.458Z,13.20
2023-05-10T00:08:08.794Z,13.20
2023-05-10T00:10:36.174Z,13.20
2023-05-10T00:13:03.124Z,13.20
2023-05-10T00:15:31.537Z,13.20
2023-05-10T00:17:58.685Z,13.20
2023-05-10T00:20:26.027Z,13.20
2023-05-10T00:22:53.148Z,13.20
2023-05-10T00:25:20.065Z,13.30
2023-05-10T00:27:46.981Z,13.30
2023-05-10T00:30:14.396Z,13.20
2023-05-10T00:32:41.935Z,13.20
2023-05-10T00:35:09.278Z,13.20
2023-05-10T00:37:36.124Z,13.20
2023-05-10T00:40:03.255Z,13.20
2023-05-10T00:42:30.141Z,13.30
2023-05-10T00:44:57.362Z,13.30
2023-05-10T00:47:24.591Z,13.20
2023-05-10T00:49:51.810Z,13.20
2023-05-10T00:52:19.113Z,13.20
2023-05-10T00:54:46.105Z,13.10
2023-05-10T00:57:12.990Z,13.10
2023-05-10T00:59:40.271Z,13.00
2023-05-10T01:02:08.276Z,13.00
2023-05-10T01:04:36.575Z,13.00
2023-05-10T01:07:03.553Z,13.00
2023-05-10T01:09:30.527Z,13.00
2023-05-10T01:11:58.092Z,13.00
2023-05-10T01:14:26.977Z,13.00
2023-05-10T01:16:54.320Z,13.00
2023-05-10T01:19:28.986Z,12.90
2023-05-10T01:22:37.691Z,12.90
2023-05-10T01:25:10.552Z,12.80
2023-05-10T01:28:39.419Z,12.80
2023-05-10T01:31:27.532Z,12.70
2023-05-10T01:34:07.330Z,12.70
2023-05-10T01:36:56.214Z,12.70
2023-05-10T01:39:45.739Z,12.70
2023-05-10T01:42:18.860Z,12.70
2023-05-10T01:45:26.529Z,12.70
2023-05-10T01:48:10.625Z,12.60
2023-05-10T01:50:40.766Z,12.70
2023-05-10T01:53:10.659Z,12.60
2023-05-10T01:55:46.659Z,12.60
2023-05-10T01:58:18.315Z,12.60
2023-05-10T02:00:47.205Z,12.60
2023-05-10T02:03:16.827Z,12.60
2023-05-10T02:05:46.063Z,12.60
2023-05-10T02:08:14.617Z,12.60
2023-05-10T02:10:43.617Z,12.60
2023-05-10T02:13:12.678Z,12.60
2023-05-10T02:15:42.648Z,12.50
2023-05-10T02:18:11.915Z,12.50
2023-05-10T02:20:39.879Z,12.50
2023-05-10T02:23:08.946Z,12.40
2023-05-10T02:25:37.837Z,12.40
2023-05-10T02:28:08.097Z,12.30
2023-05-10T02:30:36.193Z,12.30
2023-05-10T02:33:05.319Z,12.30
2023-05-10T02:35:34.402Z,12.40
2023-05-10T02:38:02.285Z,12.30
2023-05-10T02:40:30.467Z,12.30
2023-05-10T02:42:59.719Z,12.30
2023-05-10T02:45:31.247Z,12.30
2023-05-10T02:47:59.191Z,12.30
2023-05-10T02:50:29.398Z,12.30
2023-05-10T02:53:02.968Z,12.20
2023-05-10T02:55:37.627Z,12.20
2023-05-10T02:58:05.424Z,12.20
2023-05-10T03:00:32.837Z,12.10
2023-05-10T03:02:59.862Z,12.20
2023-05-10T03:05:27.142Z,12.10
2023-05-10T03:07:54.628Z,12.10
2023-05-10T03:10:27.602Z,12.10
2023-05-10T03:13:44.768Z,12.10
2023-05-10T03:16:17.785Z,12.10
2023-05-10T03:19:09.958Z,12.00
2023-05-10T03:21:41.833Z,12.10
2023-05-10T03:24:12.890Z,12.10
2023-05-10T03:26:40.777Z,12.10
2023-05-10T03:29:09.048Z,12.00
2023-05-10T03:31:36.321Z,12.00
2023-05-10T03:34:03.484Z,12.00
2023-05-10T03:36:30.335Z,12.00
2023-05-10T03:38:57.574Z,12.00
2023-05-10T03:41:24.466Z,12.00
2023-05-10T03:43:52.039Z,11.90
2023-05-10T03:46:18.965Z,12.00
2023-05-10T03:48:45.813Z,12.00
2023-05-10T03:51:12.676Z,12.00
2023-05-10T03:53:39.496Z,12.00
2023-05-10T03:56:09.194Z,12.00
2023-05-10T03:58:36.065Z,11.90
2023-05-10T04:01:03.516Z,12.00
2023-05-10T04:03:30.416Z,12.00
2023-05-10T04:06:03.910Z,12.00
2023-05-10T04:08:30.981Z,11.90
2023-05-10T04:11:08.707Z,12.00
2023-05-10T04:13:36.486Z,12.00
2023-05-10T04:16:03.893Z,12.10
2023-05-10T04:18:31.077Z,12.10
2023-05-10T04:20:58.547Z,12.20
2023-05-10T04:23:25.901Z,12.20
2023-05-10T04:25:53.173Z,12.30
2023-05-10T04:28:20.499Z,12.30
2023-05-10T04:30:47.472Z,12.40
2023-05-10T04:33:15.412Z,12.30
2023-05-10T04:35:42.718Z,12.30
2023-05-10T04:38:10.150Z,12.40
2023-05-10T04:40:37.031Z,12.40
2023-05-10T04:43:04.240Z,12.50
2023-05-10T04:45:31.631Z,12.60
2023-05-10T04:47:58.552Z,12.60
2023-05-10T04:50:25.496Z,12.60
2023-05-10T04:52:53.306Z,12.60
2023-05-10T04:55:20.317Z,12.60
2023-05-10T04:57:47.600Z,12.70
2023-05-10T05:00:15.126Z,12.70
2023-05-10T05:02:46.428Z,12.80
2023-05-10T05:05:13.863Z,12.80
2023-05-10T05:07:41.081Z,12.90
2023-05-10T05:10:09.433Z,12.90
2023-05-10T05:12:36.661Z,13.00
2023-05-10T05:15:04.272Z,13.20
2023-05-10T05:17:34.292Z,13.20
2023-05-10T05:20:01.129Z,13.30
2023-05-10T05:22:29.068Z,13.40
2023-05-10T05:24:57.557Z,13.40
2023-05-10T05:27:25.469Z,13.50
2023-05-10T05:29:54.507Z,13.50
2023-05-10T05:32:22.664Z,13.60
2023-05-10T05:34:50.064Z,13.60
2023-05-10T05:37:22.317Z,13.70
2023-05-10T05:39:49.669Z,13.70
2023-05-10T05:42:18.588Z,13.80
2023-05-10T05:44:45.824Z,13.90
2023-05-10T05:47:12.822Z,14.00
2023-05-10T05:49:40.370Z,14.10
2023-05-10T05:52:07.322Z,14.10
2023-05-10T05:54:34.217Z,14.10
2023-05-10T05:57:01.910Z,14.20
2023-05-10T05:59:29.221Z,14.20
2023-05-10T06:01:56.265Z,14.20
2023-05-10T06:04:23.331Z,14.40
2023-05-10T06:06:50.197Z,14.50
2023-05-10T06:09:17.438Z,14.60
2023-05-10T06:11:44.325Z,14.60
2023-05-10T06:14:11.329Z,14.70
2023-05-10T06:16:38.210Z,14.80
2023-05-10T06:19:05.306Z,14.90
2023-05-10T06:21:32.805Z,15.00
2023-05-10T06:23:59.682Z,15.00
2023-05-10T06:26:26.557Z,15.00
2023-05-10T06:28:53.775Z,15.00
2023-05-10T06:31:20.665Z,15.20
2023-05-10T06:33:48.035Z,15.30
2023-05-10T06:36:15.155Z,15.40
2023-05-10T06:38:42.063Z,15.40
2023-05-10T06:41:09.237Z,15.60
2023-05-10T06:43:36.187Z,15.70
2023-05-10T06:46:03.071Z,15.80
2023-05-10T06:48:29.947Z,15.90
2023-05-10T06:50:56.842Z,16.00
2023-05-10T06:53:23.739Z,16.20
2023-05-10T06:55:51.019Z,16.30
2023-05-10T06:58:17.905Z,16.40
2023-05-10T07:00:46.390Z,16.60
2023-05-10T07:03:13.892Z,16.60
2023-05-10T07:05:40.926Z,16.70
2023-05-10T07:08:07.853Z,16.90
2023-05-10T07:10:34.790Z,17.30
2023-05-10T07:13:02.516Z,17.70
2023-05-10T07:15:29.765Z,17.90
2023-05-10T07:17:56.834Z,18.10
2023-05-10T07:20:23.797Z,18.10
2023-05-10T07:22:50.747Z,18.00
2023-05-10T07:25:18.229Z,18.00
2023-05-10T07:27:45.176Z,17.90
2023-05-10T07:30:12.782Z,17.80
2023-05-10T07:32:40.554Z,17.90
2023-05-10T07:35:07.920Z,18.10
2023-05-10T07:37:34.828Z,18.30
2023-05-10T07:40:01.656Z,18.30
2023-05-10T07:42:29.149Z,18.30
2023-05-10T07:44:56.014Z,18.40
2023-05-10T07:47:22.959Z,18.50
2023-05-10T07:49:49.931Z,18.70
2023-05-10T07:52:16.868Z,18.90
2023-05-10T07:54:43.850Z,19.20
2023-05-10T07:57:11.071Z,19.50
2023-05-10T07:59:37.963Z,19.80
2023-05-10T08:02:05.301Z,19.80
2023-05-10T08:04:32.674Z,19.70
2023-05-10T08:06:59.646Z,19.90
2023-05-10T08:09:26.528Z,19.90
2023-05-10T08:11:53.423Z,20.10
2023-05-10T08:14:20.718Z,20.20
2023-05-10T08:16:48.424Z,20.30
2023-05-10T08:19:19.973Z,20.40
2023-05-10T08:21:47.113Z,20.60
2023-05-10T08:24:14.175Z,20.70
2023-05-10T08:26:41.219Z,20.90
2023-05-10T08:29:08.497Z,20.90
2023-05-10T08:31:35.486Z,20.90
2023-05-10T08:34:02.368Z,20.80
2023-05-10T08:36:29.373Z,20.70
2023-05-10T08:38:56.189Z,20.80
2023-05-10T08:41:25.393Z,21.00
2023-05-10T08:43:54.212Z,20.80
2023-05-10T08:46:22.248Z,20.90
2023-05-10T08:48:51.361Z,21.10
2023-05-10T08:51:20.877Z,21.10
2023-05-10T08:53:48.742Z,21.00
2023-05-10T08:56:17.223Z,21.10
2023-05-10T08:58:44.753Z,21.40
2023-05-10T09:01:13.810Z,21.50
2023-05-10T09:03:41.220Z,21.70
2023-05-10T09:06:08.902Z,22.00
2023-05-10T09:08:38.699Z,21.80
2023-05-10T09:11:06.237Z,21.70
2023-05-10T09:13:34.025Z,21.80
2023-05-10T09:16:09.897Z,21.60
2023-05-10T09:18:40.864Z,21.80
2023-05-10T09:21:07.910Z,21.80
2023-05-10T09:23:35.063Z,21.90
2023-05-10T09:26:08.946Z,21.80
2023-05-10T09:28:55.075Z,21.80
2023-05-10T09:31:22.567Z,21.90
2023-05-10T09:33:54.200Z,21.90
2023-05-10T09:36:21.471Z,21.70
2023-05-10T09:38:50.553Z,21.50
2023-05-10T09:41:22.759Z,21.50
2023-05-10T09:43:50.677Z,21.60
2023-05-10T09:46:20.165Z,21.70
2023-05-10T09:48:48.711Z,21.70
2023-05-10T09:51:27.857Z,21.70
2023-05-10T09:54:15.940Z,21.60
2023-05-10T09:56:43.990Z,21.50
2023-05-10T09:59:13.563Z,21.50
2023-05-10T10:01:41.914Z,21.50
2023-05-10T10:04:11.041Z,21.40
2023-05-10T10:06:39.334Z,21.30
2023-05-10T10:09:10.491Z,21.30
2023-05-10T10:11:39.027Z,21.40
2023-05-10T10:14:06.846Z,21.50
2023-05-10T10:16:34.126Z,21.60
2023-05-10T10:19:02.283Z,21.70
2023-05-10T10:21:29.738Z,21.90
2023-05-10T10:23:57.192Z,22.10
2023-05-10T10:26:24.879Z,22.00
2023-05-10T10:29:02.869Z,22.10
2023-05-10T10:31:40.627Z,22.00
2023-05-10T10:34:14.040Z,21.70
2023-05-10T10:36:46.314Z,21.40
2023-05-10T10:39:13.773Z,21.20
2023-05-10T10:41:50.607Z,20.90
2023-05-10T10:44:23.822Z,20.40
2023-05-10T10:47:26.506Z,20.10
2023-05-10T10:50:14.153Z,19.80
2023-05-10T10:52:42.249Z,19.70
2023-05-10T10:55:10.926Z,19.70
2023-05-10T10:57:48.709Z,19.70
2023-05-10T11:00:24.719Z,19.60
2023-05-10T11:02:56.085Z,19.50
2023-05-10T11:05:44.899Z,19.40
2023-05-10T11:08:27.950Z,19.40
2023-05-10T11:11:01.139Z,19.20
2023-05-10T11:13:30.112Z,19.10
2023-05-10T11:16:00.464Z,19.00
2023-05-10T11:18:28.562Z,18.90
2023-05-10T11:21:06.422Z,18.70
2023-05-10T11:23:50.025Z,18.60
2023-05-10T11:26:17.863Z,18.50
2023-05-10T11:28:46.070Z,18.50
2023-05-10T11:31:17.912Z,18.50
2023-05-10T11:33:52.368Z,18.40
2023-05-10T11:36:24.404Z,18.30
2023-05-10T11:38:51.902Z,18.20
2023-05-10T11:41:22.828Z,18.10
2023-05-10T11:43:54.898Z,18.10
2023-05-10T11:46:27.889Z,17.80
2023-05-10T11:48:58.865Z,17.60
2023-05-10T11:51:26.443Z,17.40
2023-05-10T11:53:57.780Z,17.50
2023-05-10T11:56:24.867Z,17.60
2023-05-10T11:58:57.223Z,17.60
2023-05-10T12:01:26.148Z,17.70
2023-05-10T12:03:56.359Z,17.80
2023-05-10T12:06:23.619Z,17.80
2023-05-10T12:08:54.766Z,17.90
2023-05-10T12:11:26.443Z,17.90
2023-05-10T12:13:56.109Z,18.00
2023-05-10T12:16:25.662Z,18.10
2023-05-10T12:18:54.694Z,18.10
2023-05-10T12:21:22.522Z,18.10
2023-05-10T12:23:55.121Z,18.20
2023-05-10T12:26:29.994Z,18.30
2023-05-10T12:29:21.453Z,18.40
2023-05-10T12:31:56.955Z,18.40
2023-05-10T12:34:35.201Z,18.20
2023-05-10T12:37:02.712Z,18.20
2023-05-10T12:39:47.092Z,18.30
2023-05-10T12:42:14.049Z,18.40
2023-05-10T12:44:41.118Z,18.40
2023-05-10T12:47:08.387Z,18.60
2023-05-10T12:49:35.696Z,18.60
2023-05-10T12:52:02.869Z,18.90
2023-05-10T12:54:30.540Z,18.90
2023-05-10T12:56:57.783Z,18.90
2023-05-10T12:59:24.710Z,18.90
2023-05-10T13:01:52.625Z,18.80
2023-05-10T13:04:19.931Z,18.90
2023-05-10T13:06:46.809Z,19.00
2023-05-10T13:09:13.820Z,19.00
2023-05-10T13:11:41.136Z,19.10
2023-05-10T13:14:08.418Z,19.10
2023-05-10T13:16:35.579Z,19.20
2023-05-10T13:19:02.660Z,19.30
2023-05-10T13:21:29.759Z,19.30
2023-05-10T13:23:56.693Z,19.20
2023-05-10T13:26:23.614Z,19.20
2023-05-10T13:28:52.705Z,19.20
2023-05-10T13:31:19.748Z,19.20
2023-05-10T13:33:47.072Z,19.10
2023-05-10T13:36:14.243Z,19.10
2023-05-10T13:38:41.091Z,19.10
2023-05-10T13:41:08.171Z,19.10
2023-05-10T13:43:35.031Z,19.10
2023-05-10T13:46:02.615Z,19.30
2023-05-10T13:48:29.705Z,19.40
2023-05-10T13:50:57.163Z,19.50
2023-05-10T13:53:24.131Z,19.60
2023-05-10T13:55:51.049Z,19.80
2023-05-10T13:58:17.934Z,19.70
2023-05-10T14:00:44.882Z,19.80
2023-05-10T14:03:12.651Z,19.80
2023-05-10T14:05:39.691Z,19.90
2023-05-10T14:08:06.639Z,20.10
2023-05-10T14:10:33.562Z,20.30
2023-05-10T14:13:00.888Z,20.40
2023-05-10T14:15:27.732Z,20.50
2023-05-10T14:17:54.737Z,20.50
2023-05-10T14:20:22.090Z,20.80
2023-05-10T14:22:48.906Z,21.00
2023-05-10T14:25:16.421Z,21.30
2023-05-10T14:27:43.535Z,21.50
2023-05-10T14:30:11.530Z,21.40
2023-05-10T14:32:38.539Z,21.20
2023-05-10T14:35:07.045Z,21.10
2023-05-10T14:37:34.355Z,20.90
2023-05-10T14:40:01.833Z,20.90
2023-05-10T14:42:29.507Z,21.00
2023-05-10T14:44:56.742Z,21.30
2023-05-10T14:47:24.095Z,21.30
2023-05-10T14:49:51.195Z,20.90
2023-05-10T14:52:18.541Z,20.60
2023-05-10T14:54:45.391Z,20.70
2023-05-10T14:57:12.352Z,20.80
2023-05-10T14:59:41.607Z,20.70
2023-05-10T15:02:09.404Z,20.60
2023-05-10T15:04:36.758Z,20.50
2023-05-10T15:07:04.239Z,20.60
2023-05-10T15:09:31.238Z,20.30
2023-05-10T15:11:58.155Z,20.10
2023-05-10T15:14:25.131Z,19.90
2023-05-10T15:16:52.393Z,19.80
2023-05-10T15:19:20.722Z,19.80
2023-05-10T15:21:48.324Z,19.70
2023-05-10T15:24:15.583Z,19.70
2023-05-10T15:26:42.644Z,19.60
2023-05-10T15:29:10.577Z,19.60
2023-05-10T15:31:37.952Z,19.60
2023-05-10T15:34:05.238Z,19.70
2023-05-10T15:36:33.175Z,19.60
2023-05-10T15:39:00.569Z,19.50
2023-05-10T15:41:27.832Z,19.50
2023-05-10T15:43:55.117Z,19.40
2023-05-10T15:46:22.664Z,19.40
2023-05-10T15:48:49.661Z,19.30
2023-05-10T15:51:17.081Z,19.30
2023-05-10T15:53:56.528Z,19.20
2023-05-10T15:56:23.670Z,19.20
2023-05-10T15:58:51.362Z,19.20
2023-05-10T16:01:18.718Z,19.30
2023-05-10T16:03:45.706Z,19.20
2023-05-10T16:06:12.588Z,19.10
2023-05-10T16:08:39.897Z,19.10
2023-05-10T16:11:07.944Z,19.10
2023-05-10T16:13:35.233Z,19.10
2023-05-10T16:16:02.604Z,19.00
2023-05-10T16:18:29.614Z,18.90
2023-05-10T16:20:57.042Z,18.80
2023-05-10T16:23:23.898Z,18.80
2023-05-10T16:25:51.668Z,18.70
2023-05-10T16:28:21.160Z,18.60
2023-05-10T16:30:48.926Z,18.50
2023-05-10T16:33:15.858Z,18.40
2023-05-10T16:35:42.757Z,18.30
2023-05-10T16:38:10.008Z,18.20
2023-05-10T16:40:36.853Z,18.10
2023-05-10T16:43:03.717Z,18.10
2023-05-10T16:45:32.553Z,18.00
2023-05-10T16:47:59.600Z,17.90
2023-05-10T16:50:26.515Z,17.90
2023-05-10T16:52:53.389Z,17.90
2023-05-10T16:55:20.696Z,17.80
2023-05-10T16:57:47.679Z,17.80
2023-05-10T17:00:15.530Z,17.70
2023-05-10T17:02:42.920Z,17.60
2023-05-10T17:05:10.040Z,17.60
2023-05-10T17:07:36.891Z,17.50
2023-05-10T17:10:04.336Z,17.40
2023-05-10T17:12:31.227Z,17.30
2023-05-10T17:14:58.865Z,17.30
2023-05-10T17:17:25.831Z,17.20
2023-05-10T17:19:52.781Z,17.10
2023-05-10T17:22:19.710Z,17.10
2023-05-10T17:24:46.706Z,17.00
2023-05-10T17:27:14.143Z,16.90
2023-05-10T17:29:41.030Z,16.80
2023-05-10T17:32:09.369Z,16.70
2023-05-10T17:34:37.523Z,16.70
2023-05-10T17:37:05.127Z,16.60
2023-05-10T17:39:32.360Z,16.60
2023-05-10T17:41:59.325Z,16.50
2023-05-10T17:44:26.369Z,16.40
2023-05-10T17:46:53.950Z,16.40
2023-05-10T17:49:21.232Z,16.30
2023-05-10T17:51:48.264Z,16.20
2023-05-10T17:54:15.250Z,16.20
2023-05-10T17:56:42.367Z,16.20
2023-05-10T17:59:09.698Z,16.20
2023-05-10T18:01:36.680Z,16.10
2023-05-10T18:04:04.678Z,16.10
2023-05-10T18:06:37.212Z,16.10
2023-05-10T18:09:05.256Z,16.10
2023-05-10T18:11:32.198Z,16.10
2023-05-10T18:13:59.447Z,16.10
2023-05-10T18:16:26.817Z,16.20
2023-05-10T18:18:54.047Z,16.20
2023-05-10T18:21:20.992Z,16.10
2023-05-10T18:23:47.811Z,16.10
2023-05-10T18:26:14.864Z,16.10
2023-05-10T18:28:42.904Z,16.00
2023-05-10T18:31:09.900Z,15.50
2023-05-10T18:33:37.164Z,16.00
2023-05-10T18:36:04.881Z,16.10
2023-05-10T18:38:31.833Z,16.10
2023-05-10T18:40:58.788Z,16.10
2023-05-10T18:43:25.661Z,16.00
2023-05-10T18:45:52.788Z,16.00
2023-05-10T18:48:20.156Z,16.00
2023-05-10T18:50:47.177Z,16.00
2023-05-10T18:53:14.140Z,16.00
2023-05-10T18:55:41.097Z,15.90
2023-05-10T18:58:08.010Z,15.90
2023-05-10T19:00:34.845Z,15.80
2023-05-10T19:03:01.969Z,15.80
2023-05-10T19:05:31.698Z,15.90
2023-05-10T19:07:58.750Z,15.80
2023-05-10T19:10:25.873Z,15.80
2023-05-10T19:12:53.520Z,15.80
2023-05-10T19:15:21.724Z,15.80
2023-05-10T19:17:50.293Z,15.70
2023-05-10T19:20:18.050Z,15.70
2023-05-10T19:23:02.054Z,15.60
2023-05-10T19:25:34.308Z,15.60
2023-05-10T19:28:01.540Z,15.60
2023-05-10T19:30:29.005Z,15.60
2023-05-10T19:32:56.666Z,15.60
2023-05-10T19:35:24.284Z,15.60
2023-05-10T19:37:52.861Z,15.60
2023-05-10T19:40:20.733Z,15.60
2023-05-10T19:42:48.134Z,15.60
2023-05-10T19:45:16.418Z,15.60
2023-05-10T19:47:43.984Z,15.60
2023-05-10T19:50:12.653Z,15.50
2023-05-10T19:52:40.221Z,15.60
2023-05-10T19:55:09.087Z,15.60
2023-05-10T19:57:36.300Z,15.60
2023-05-10T20:00:05.121Z,15.60
2023-05-10T20:02:32.245Z,15.60
2023-05-10T20:04:59.313Z,15.60
2023-05-10T20:07:26.346Z,15.60
2023-05-10T20:09:53.447Z,15.60
2023-05-10T20:12:21.052Z,15.60
2023-05-10T20:14:48.163Z,15.60
2023-05-10T20:17:15.310Z,15.50
2023-05-10T20:19:42.979Z,15.50
2023-05-10T20:22:10.792Z,15.50
2023-05-10T20:24:38.038Z,15.50
2023-05-10T20:27:05.139Z,15.70
2023-05-10T20:29:32.907Z,15.60
2023-05-10T20:32:00.092Z,15.60
2023-05-10T20:34:27.596Z,15.50
2023-05-10T20:36:54.787Z,15.60
2023-05-10T20:39:21.957Z,15.50
2023-05-10T20:41:49.740Z,15.50
2023-05-10T20:44:18.441Z,15.50
2023-05-10T20:46:45.668Z,15.50
2023-05-10T20:49:12.788Z,15.40
2023-05-10T20:51:41.348Z,15.40
2023-05-10T20:54:08.430Z,15.40
2023-05-10T20:56:35.420Z,15.40
2023-05-10T20:59:02.720Z,15.40
2023-05-10T21:01:30.233Z,15.40
2023-05-10T21:03:57.204Z,15.40
2023-05-10T21:06:24.200Z,15.30
2023-05-10T21:08:51.508Z,15.30
2023-05-10T21:11:18.392Z,15.40
2023-05-10T21:13:45.670Z,15.40
2023-05-10T21:16:12.984Z,15.30
2023-05-10T21:18:39.878Z,15.30
2023-05-10T21:21:07.172Z,15.30
2023-05-10T21:23:34.632Z,15.40
2023-05-10T21:26:03.789Z,15.30
2023-05-10T21:28:31.287Z,15.40
2023-05-10T21:30:58.564Z,15.50
2023-05-10T21:33:25.486Z,15.40
2023-05-10T21:35:52.786Z,15.40
2023-05-10T21:38:19.743Z,15.40
2023-05-10T21:40:47.025Z,15.40
2023-05-10T21:43:14.344Z,15.40
2023-05-10T21:45:41.409Z,15.50
2023-05-10T21:48:08.369Z,15.50
2023-05-10T21:50:35.309Z,15.40
2023-05-10T21:53:02.406Z,15.50
2023-05-10T21:55:29.314Z,15.50
2023-05-10T21:57:56.329Z,15.50
2023-05-10T22:00:23.502Z,15.50
2023-05-10T22:02:50.590Z,15.40
2023-05-10T22:05:17.608Z,15.40
2023-05-10T22:07:44.432Z,15.40
2023-05-10T22:10:11.402Z,15.40
2023-05-10T22:12:38.304Z,15.40
2023-05-10T22:17:37.848Z,15.40
2023-05-10T22:20:06.469Z,15.50
2023-05-10T22:22:33.445Z,15.50
2023-05-10T22:25:00.764Z,15.50
2023-05-10T22:27:27.634Z,15.40
2023-05-10T22:29:54.471Z,15.40
2023-05-10T22:32:21.349Z,15.40
2023-05-10T22:34:48.204Z,15.30
2023-05-10T22:37:17.911Z,15.30
2023-05-10T22:39:49.173Z,15.40
2023-05-10T22:42:16.634Z,15.50
2023-05-10T22:44:46.025Z,15.50
2023-05-10T22:47:14.171Z,14.90
2023-05-10T22:49:41.935Z,14.60
2023-05-10T22:52:12.037Z,15.50
2023-05-10T23:00:10.819Z,15.40
2023-05-10T23:02:38.988Z,15.50
2023-05-10T23:05:08.996Z,15.50
2023-05-10T23:07:36.501Z,15.50
2023-05-10T23:10:05.404Z,15.10
2023-05-10T23:12:37.782Z,15.30
2023-05-10T23:15:08.547Z,15.20
2023-05-10T23:17:39.669Z,15.40
2023-05-10T23:20:07.687Z,15.20
2023-05-10T23:22:35.269Z,15.30
2023-05-10T23:25:02.514Z,15.20
2023-05-10T23:27:30.681Z,15.20
2023-05-10T23:30:00.268Z,14.00
2023-05-10T23:32:29.759Z,15.30
2023-05-10T23:34:57.924Z,15.30
2023-05-10T23:37:25.244Z,16.30
2023-05-10T23:39:52.821Z,15.30
2023-05-10T23:42:21.522Z,15.40
2023-05-10T23:44:50.767Z,15.40
2023-05-10T23:47:18.662Z,13.80
2023-05-10T23:49:46.368Z,15.30
2023-05-10T23:52:16.529Z,16.50
2023-05-10T23:54:45.856Z,15.50
2023-05-10T23:57:13.681Z,15.30
2023-05-10T23:59:43.218Z,15.30
